createdAt,value
2018-09-24T00:01:21.085Z,1.3
2018-09-24T00:02:21.254Z,1.4
2018-09-24T00:03:21.384Z,1.4
2018-09-24T00:04:21.310Z,1.4
2018-09-24T00:05:21.450Z,1.2
2018-09-24T00:06:21.634Z,1.6
2018-09-24T00:08:21.656Z,1.7
2018-09-24T00:09:21.726Z,1.7
2018-09-24T00:11:22.009Z,1.6
2018-09-24T00:12:22.044Z,1.8
2018-09-24T00:13:22.137Z,1.6
2018-09-24T00:14:22.383Z,1.5
2018-09-24T00:15:22.425Z,1.5
2018-09-24T00:16:22.353Z,1.3
2018-09-24T00:17:22.471Z,1.6
2018-09-24T00:18:22.745Z,1.4
2018-09-24T00:19:22.726Z,1.3
2018-09-24T00:20:40.768Z,1.5
2018-09-24T00:21:22.858Z,1.5
2018-09-24T00:22:23.073Z,1.5
2018-09-24T00:23:23.012Z,1.5
2018-09-24T00:24:23.084Z,1.6
2018-09-24T00:25:41.151Z,1.4
2018-09-24T00:26:23.355Z,1.5
2018-09-24T00:27:23.419Z,1.4
2018-09-24T00:28:23.334Z,1.4
2018-09-24T00:29:41.340Z,1.5
2018-09-24T00:30:23.528Z,1.4
2018-09-24T00:31:23.510Z,1.5
2018-09-24T00:32:23.625Z,1.5
2018-09-24T00:33:23.738Z,1.9
2018-09-24T00:34:23.875Z,1.7
2018-09-24T00:35:24.185Z,1.5
2018-09-24T00:36:24.135Z,1.6
2018-09-24T00:37:24.232Z,1.4
2018-09-24T00:38:24.440Z,1.4
2018-09-24T00:39:24.358Z,1.7
2018-09-24T00:40:24.501Z,1.4
2018-09-24T00:41:42.537Z,1.7
2018-09-24T00:43:42.571Z,1.8
2018-09-24T00:44:24.666Z,2
2018-09-24T00:45:24.860Z,2.1
2018-09-24T00:46:25.840Z,1.8
2018-09-24T00:47:24.899Z,1.7
2018-09-24T00:48:25.070Z,1.9
2018-09-24T00:50:25.449Z,1.8
2018-09-24T00:51:43.340Z,1.8
2018-09-24T00:52:25.474Z,1.6
2018-09-24T00:53:25.632Z,1.7
2018-09-24T00:54:43.655Z,1.5
2018-09-24T00:55:25.774Z,1.8
2018-09-24T00:56:26.014Z,1.6
2018-09-24T00:57:44.022Z,1.6
2018-09-24T00:58:43.909Z,1.6
2018-09-24T00:59:26.038Z,1.5
2018-09-24T01:00:26.081Z,1.6
2018-09-24T01:01:26.355Z,1.3
2018-09-24T01:02:26.417Z,1.7
2018-09-24T01:03:26.354Z,1.3
2018-09-24T01:04:26.459Z,1.2
2018-09-24T01:05:26.738Z,1.2
2018-09-24T01:06:26.921Z,1.5
2018-09-24T01:07:26.685Z,1.2
2018-09-24T01:08:26.803Z,1.2
2018-09-24T01:09:27.030Z,1.2
2018-09-24T01:10:44.938Z,1.3
2018-09-24T01:11:27.068Z,1.4
2018-09-24T01:12:27.212Z,1.1
2018-09-24T01:13:27.486Z,1.3
2018-09-24T01:14:27.474Z,1.1
2018-09-24T01:15:27.511Z,1.2
2018-09-24T01:16:27.623Z,1.3
2018-09-24T01:18:27.911Z,1.3
2018-09-24T01:19:27.893Z,1.2
2018-09-24T01:20:28.006Z,1.4
2018-09-24T01:21:28.116Z,1.3
2018-09-24T01:22:47.242Z,1.5
2018-09-24T01:23:28.384Z,1.6
2018-09-24T01:24:28.505Z,1.6
2018-09-24T01:25:28.621Z,1.6
2018-09-24T01:26:28.746Z,1.6
2018-09-24T01:27:46.764Z,1.7
2018-09-24T01:28:28.899Z,1.8
2018-09-24T01:29:29.002Z,1.8
2018-09-24T01:30:29.078Z,2.1
2018-09-24T01:31:29.244Z,2.3
2018-09-24T01:32:29.188Z,2.4
2018-09-24T01:33:29.391Z,2.5
2018-09-24T01:34:29.309Z,1.6
2018-09-24T01:35:29.456Z,1.3
2018-09-24T01:36:29.505Z,1.4
2018-09-24T01:37:29.707Z,1.5
2018-09-24T01:38:47.789Z,1.5
2018-09-24T01:39:29.782Z,1.3
2018-09-24T01:40:29.860Z,1.4
2018-09-24T01:41:30.985Z,1.2
2018-09-24T01:42:30.154Z,1.4
2018-09-24T01:43:47.998Z,1.2
2018-09-24T01:44:30.107Z,1.2
2018-09-24T01:45:30.388Z,1.1
2018-09-24T01:46:30.401Z,1.3
2018-09-24T01:47:48.225Z,1.2
2018-09-24T01:48:30.373Z,1
2018-09-24T01:49:30.562Z,1.3
2018-09-24T01:50:30.564Z,1.6
2018-09-24T01:51:30.604Z,1.1
2018-09-24T01:52:30.783Z,1.1
2018-09-24T01:53:30.872Z,1.2
2018-09-24T01:54:30.782Z,1
2018-09-24T01:55:30.926Z,1.3
2018-09-24T01:56:31.021Z,0.9
2018-09-24T01:57:31.142Z,1
2018-09-24T01:58:31.258Z,1
2018-09-24T01:59:31.428Z,1
2018-09-24T02:00:31.582Z,0.9
2018-09-24T02:01:31.650Z,1.1
2018-09-24T02:02:31.600Z,1
2018-09-24T02:03:31.700Z,1.1
2018-09-24T02:04:31.854Z,0.8
2018-09-24T02:05:31.929Z,1
2018-09-24T02:06:31.871Z,1
2018-09-24T02:07:49.864Z,1
2018-09-24T02:08:32.112Z,0.9
2018-09-24T02:09:32.026Z,1.1
2018-09-24T02:10:32.181Z,1
2018-09-24T02:11:32.285Z,0.9
2018-09-24T02:12:32.400Z,1.2
2018-09-24T02:13:32.565Z,0.8
2018-09-24T02:14:32.670Z,1
2018-09-24T02:15:32.824Z,1.2
2018-09-24T02:16:32.983Z,0.9
2018-09-24T02:17:33.020Z,0.9
2018-09-24T02:18:32.969Z,0.9
2018-09-24T02:20:51.084Z,1
2018-09-24T02:21:33.337Z,0.9
2018-09-24T02:22:33.284Z,1
2018-09-24T02:23:33.421Z,0.9
2018-09-24T02:24:33.684Z,1
2018-09-24T02:25:33.848Z,1
2018-09-24T02:26:33.616Z,1
2018-09-24T02:27:33.757Z,0.8
2018-09-24T02:28:51.850Z,1.9
2018-09-24T02:29:34.006Z,1.1
2018-09-24T02:30:34.230Z,1.1
2018-09-24T02:31:34.204Z,0.9
2018-09-24T02:32:34.387Z,0.8
2018-09-24T02:33:34.280Z,0.8
2018-09-24T02:34:34.464Z,0.8
2018-09-24T02:35:34.543Z,0.7
2018-09-24T02:36:34.693Z,0.8
2018-09-24T02:37:34.792Z,0.8
2018-09-24T02:38:34.870Z,0.7
2018-09-24T02:39:34.956Z,0.8
2018-09-24T02:40:35.109Z,0.6
2018-09-24T02:41:35.160Z,0.9
2018-09-24T02:42:35.114Z,0.7
2018-09-24T02:43:35.199Z,0.9
2018-09-24T02:44:35.465Z,0.8
2018-09-24T02:45:35.523Z,0.8
2018-09-24T02:46:35.505Z,0.7
2018-09-24T02:47:35.552Z,0.7
2018-09-24T02:48:35.606Z,1
2018-09-24T02:50:35.598Z,0.8
2018-09-24T02:51:35.699Z,0.8
2018-09-24T02:52:35.830Z,0.8
2018-09-24T02:53:35.791Z,0.7
2018-09-24T02:54:35.862Z,0.8
2018-09-24T02:55:35.890Z,0.7
2018-09-24T02:56:36.070Z,0.8
2018-09-24T02:57:36.022Z,0.7
2018-09-24T02:58:36.121Z,0.7
2018-09-24T02:59:36.240Z,0.7
2018-09-24T03:00:54.263Z,0.8
2018-09-24T03:01:54.338Z,0.8
2018-09-24T03:02:36.733Z,0.8
2018-09-24T03:03:36.525Z,0.8
2018-09-24T03:04:36.656Z,0.9
2018-09-24T03:05:36.745Z,0.9
2018-09-24T03:06:36.919Z,1
2018-09-24T03:07:37.007Z,1.1
2018-09-24T03:08:36.941Z,1.2
2018-09-24T03:09:37.070Z,1.4
2018-09-24T03:10:55.128Z,1.1
2018-09-24T03:11:37.451Z,1.2
2018-09-24T03:12:37.449Z,0.9
2018-09-24T03:13:37.387Z,0.9
2018-09-24T03:14:37.504Z,1
2018-09-24T03:15:37.604Z,1
2018-09-24T03:16:37.870Z,0.8
2018-09-24T03:17:37.823Z,0.8
2018-09-24T03:18:55.652Z,0.8
2018-09-24T03:19:37.751Z,0.8
2018-09-24T03:20:37.824Z,0.8
2018-09-24T03:21:37.919Z,0.9
2018-09-24T03:22:38.090Z,0.7
2018-09-24T03:23:38.039Z,0.8
2018-09-24T03:24:38.150Z,1
2018-09-24T03:25:38.240Z,0.9
2018-09-24T03:26:38.363Z,0.9
2018-09-24T03:27:38.554Z,1
2018-09-24T03:29:38.673Z,0.9
2018-09-24T03:30:38.884Z,1
2018-09-24T03:31:38.807Z,1.1
2018-09-24T03:32:38.971Z,0.9
2018-09-24T03:33:38.908Z,1.1
2018-09-24T03:34:39.145Z,1.2
2018-09-24T03:35:39.212Z,1.2
2018-09-24T03:36:39.128Z,1.1
2018-09-24T03:37:39.265Z,1.1
2018-09-24T03:38:39.472Z,1.3
2018-09-24T03:39:39.549Z,1.3
2018-09-24T03:40:39.462Z,1.2
2018-09-24T03:41:39.577Z,1.3
2018-09-24T03:42:39.604Z,1.4
2018-09-24T03:43:39.525Z,1.2
2018-09-24T03:44:39.615Z,1.3
2018-09-24T03:45:39.608Z,1.1
2018-09-24T03:46:39.831Z,1.5
2018-09-24T03:47:39.787Z,1.4
2018-09-24T03:48:40.014Z,1.6
2018-09-24T03:49:40.102Z,1.2
2018-09-24T03:50:40.033Z,1.5
2018-09-24T03:51:40.035Z,1.3
2018-09-24T03:52:40.219Z,1.4
2018-09-24T03:53:40.243Z,1.4
2018-09-24T03:54:40.204Z,1.5
2018-09-24T03:55:40.301Z,1.4
2018-09-24T03:56:40.455Z,1.6
2018-09-24T03:57:40.638Z,1.2
2018-09-24T03:58:40.647Z,1.4
2018-09-24T03:59:40.740Z,1.6
2018-09-24T04:00:40.893Z,1.4
2018-09-24T04:01:41.025Z,1.3
2018-09-24T04:02:58.865Z,1.1
2018-09-24T04:04:41.277Z,1.2
2018-09-24T04:05:41.382Z,1.2
2018-09-24T04:06:41.353Z,1
2018-09-24T04:07:41.431Z,1.2
2018-09-24T04:08:41.579Z,1
2018-09-24T04:09:41.687Z,1.3
2018-09-24T04:10:41.697Z,1.1
2018-09-24T04:11:41.780Z,1.1
2018-09-24T04:12:41.887Z,1.2
2018-09-24T04:13:42.016Z,1.1
2018-09-24T04:14:42.227Z,1.1
2018-09-24T04:15:42.224Z,1.1
2018-09-24T04:17:42.425Z,1.2
2018-09-24T04:18:42.483Z,1.2
2018-09-24T04:20:42.600Z,1.2
2018-09-24T04:21:42.564Z,1.1
2018-09-24T04:22:42.833Z,1.3
2018-09-24T04:23:42.820Z,1.2
2018-09-24T04:24:42.992Z,1.2
2018-09-24T04:25:43.052Z,1.3
2018-09-24T04:26:43.077Z,1.3
2018-09-24T04:27:43.065Z,1.1
2018-09-24T04:28:43.214Z,1.3
2018-09-24T04:29:43.331Z,1.3
2018-09-24T04:30:43.480Z,1.4
2018-09-24T04:31:43.421Z,1.4
2018-09-24T04:32:43.513Z,1.3
2018-09-24T04:33:43.842Z,1.1
2018-09-24T04:35:01.690Z,1.3
2018-09-24T04:35:43.857Z,1.2
2018-09-24T04:38:02.051Z,1.3
2018-09-24T04:38:44.207Z,1.2
2018-09-24T04:39:44.301Z,1.3
2018-09-24T04:40:44.486Z,1.4
2018-09-24T04:41:44.709Z,1.2
2018-09-24T04:42:44.493Z,1.4
2018-09-24T04:44:44.973Z,1.7
2018-09-24T04:45:44.992Z,1.4
2018-09-24T04:46:44.849Z,1.5
2018-09-24T04:47:45.379Z,1.7
2018-09-24T04:48:45.130Z,1.2
2018-09-24T04:49:45.142Z,1.9
2018-09-24T04:51:03.062Z,1.5
2018-09-24T04:51:45.402Z,1.4
2018-09-24T04:52:45.414Z,1.3
2018-09-24T04:53:45.360Z,1.5
2018-09-24T04:55:03.423Z,2.2
2018-09-24T04:55:45.871Z,1.7
2018-09-24T04:57:03.564Z,1.8
2018-09-24T04:57:45.708Z,1.6
2018-09-24T04:58:45.983Z,1.5
2018-09-24T05:00:46.158Z,1.5
2018-09-24T05:02:04.021Z,1.4
2018-09-24T05:02:46.205Z,1.5
2018-09-24T05:03:46.261Z,1.6
2018-09-24T05:04:46.456Z,1.4
2018-09-24T05:05:46.385Z,1.3
2018-09-24T05:06:46.387Z,1.3
2018-09-24T05:07:46.641Z,1.4
2018-09-24T05:08:46.637Z,1.3
2018-09-24T05:09:46.495Z,1.2
2018-09-24T05:10:46.628Z,1.3
2018-09-24T05:11:46.730Z,1.5
2018-09-24T05:13:04.620Z,1.4
2018-09-24T05:13:46.782Z,1.5
2018-09-24T05:14:46.820Z,1.5
2018-09-24T05:15:47.003Z,1.3
2018-09-24T05:16:46.861Z,1.2
2018-09-24T05:17:46.871Z,1.1
2018-09-24T05:19:46.959Z,1
2018-09-24T05:21:47.142Z,0.8
2018-09-24T05:22:47.396Z,1
2018-09-24T05:23:47.341Z,1
2018-09-24T05:24:47.379Z,0.9
2018-09-24T05:25:47.477Z,0.9
2018-09-24T05:26:47.653Z,0.8
2018-09-24T05:27:47.701Z,0.9
2018-09-24T05:29:05.618Z,1
2018-09-24T05:30:47.838Z,0.9
2018-09-24T05:31:47.950Z,1
2018-09-24T05:33:05.870Z,0.7
2018-09-24T05:34:06.157Z,0.8
2018-09-24T05:35:05.935Z,0.7
2018-09-24T05:37:06.267Z,0.9
2018-09-24T05:39:06.208Z,0.9
2018-09-24T05:40:06.259Z,0.9
2018-09-24T05:40:48.519Z,0.8
2018-09-24T05:42:06.319Z,0.9
2018-09-24T05:43:06.375Z,0.8
2018-09-24T05:43:48.477Z,0.7
2018-09-24T05:45:48.618Z,1
2018-09-24T05:46:48.723Z,1
2018-09-24T05:47:48.789Z,0.8
2018-09-24T05:48:48.898Z,0.8
2018-09-24T05:49:48.959Z,0.8
2018-09-24T05:50:49.031Z,0.8
2018-09-24T05:51:49.059Z,0.8
2018-09-24T05:53:07.075Z,0.9
2018-09-24T05:53:49.380Z,0.9
2018-09-24T05:54:49.245Z,0.9
2018-09-24T05:55:49.261Z,0.9
2018-09-24T05:56:49.350Z,0.7
2018-09-24T05:58:49.711Z,1
2018-09-24T06:00:07.477Z,0.8
2018-09-24T06:00:49.824Z,0.9
2018-09-24T06:02:07.655Z,1
2018-09-24T06:02:49.916Z,0.8
2018-09-24T06:04:07.916Z,0.8
2018-09-24T06:04:49.901Z,0.9
2018-09-24T06:05:49.957Z,0.9
2018-09-24T06:07:50.101Z,0.9
2018-09-24T06:09:08.082Z,0.8
2018-09-24T06:09:50.195Z,0.7
2018-09-24T06:10:50.223Z,0.8
2018-09-24T06:11:50.371Z,0.7
2018-09-24T06:12:50.522Z,0.8
2018-09-24T06:14:08.440Z,0.9
2018-09-24T06:15:50.669Z,0.9
2018-09-24T06:16:50.679Z,1
2018-09-24T06:17:51.825Z,0.8
2018-09-24T06:18:50.994Z,0.8
2018-09-24T06:19:51.049Z,0.7
2018-09-24T06:20:51.081Z,0.9
2018-09-24T06:21:51.148Z,0.9
2018-09-24T06:23:09.158Z,0.9
2018-09-24T06:23:51.403Z,0.9
2018-09-24T06:25:51.484Z,0.8
2018-09-24T06:27:09.574Z,0.9
2018-09-24T06:28:51.559Z,0.8
2018-09-24T06:29:51.682Z,1
2018-09-24T06:30:51.791Z,1
2018-09-24T06:31:51.843Z,0.9
2018-09-24T06:32:51.999Z,0.9
2018-09-24T06:33:52.054Z,0.9
2018-09-24T06:34:52.153Z,0.9
2018-09-24T06:35:52.187Z,1
2018-09-24T06:36:52.245Z,0.9
2018-09-24T06:37:52.491Z,0.9
2018-09-24T06:38:52.340Z,0.9
2018-09-24T06:41:33.333Z,0.8
2018-09-24T06:42:08.241Z,0.8
2018-09-24T06:43:08.213Z,1
2018-09-24T07:10:21.215Z,1
2018-09-24T07:11:21.329Z,1.5
2018-09-24T07:12:03.288Z,1.5
2018-09-24T07:13:03.316Z,1.4
2018-09-24T07:14:03.525Z,1.4
2018-09-24T07:15:21.436Z,1.2
2018-09-24T07:16:03.485Z,1.4
2018-09-24T07:17:21.464Z,1.3
2018-09-24T07:18:03.655Z,1.4
2018-09-24T07:19:03.862Z,1.2
2018-09-24T07:20:03.723Z,1.1
2018-09-24T07:21:03.850Z,1.3
2018-09-24T07:23:04.985Z,1.3
2018-09-24T07:24:03.978Z,1.3
2018-09-24T07:25:21.987Z,1.3
2018-09-24T07:26:22.022Z,1.2
2018-09-24T07:27:22.118Z,1.3
2018-09-24T07:28:04.291Z,1.5
2018-09-24T07:29:04.286Z,1.1
2018-09-24T07:30:04.384Z,1.1
2018-09-24T07:31:04.427Z,1.3
2018-09-24T07:32:04.681Z,1.3
2018-09-24T07:34:04.545Z,1.4
2018-09-24T07:35:04.638Z,1.1
2018-09-24T07:36:04.766Z,1
2018-09-24T07:37:04.973Z,1.1
2018-09-24T07:38:04.825Z,1
2018-09-24T07:39:04.875Z,1
2018-09-24T07:40:05.051Z,1.1
2018-09-24T07:41:05.104Z,1.1
2018-09-24T07:42:22.905Z,1
2018-09-24T07:43:05.185Z,1.2
2018-09-24T07:44:05.249Z,1.1
2018-09-24T07:45:23.261Z,1.2
2018-09-24T07:46:05.386Z,1.1
2018-09-24T07:47:05.531Z,1.3
2018-09-24T07:48:05.593Z,1.1
2018-09-24T07:49:23.546Z,1.1
2018-09-24T07:50:05.689Z,1.3
2018-09-24T07:51:05.819Z,1
2018-09-24T07:52:05.995Z,1.1
2018-09-24T07:53:05.856Z,1.3
2018-09-24T07:54:23.876Z,1.1
2018-09-24T07:55:06.079Z,1.1
2018-09-24T07:56:06.230Z,1.1
2018-09-24T07:57:06.146Z,1.3
2018-09-24T07:58:06.221Z,1.1
2018-09-24T07:59:06.394Z,1
2018-09-24T08:00:06.242Z,1.1
2018-09-24T08:01:06.378Z,1
2018-09-24T08:02:06.402Z,1.2
2018-09-24T08:03:06.458Z,1.2
2018-09-24T08:04:06.627Z,1.4
2018-09-24T08:05:06.657Z,1.5
2018-09-24T08:07:07.081Z,1.4
2018-09-24T08:08:06.930Z,1.3
2018-09-24T08:09:06.833Z,1.3
2018-09-24T08:11:06.959Z,1.2
2018-09-24T08:12:07.221Z,1.2
2018-09-24T08:13:07.137Z,1.3
2018-09-24T08:14:07.216Z,1.2
2018-09-24T08:15:07.379Z,1.1
2018-09-24T08:16:08.429Z,1
2018-09-24T08:17:07.525Z,1.2
2018-09-24T08:18:07.682Z,1.2
2018-09-24T08:19:07.706Z,1.1
2018-09-24T08:20:07.630Z,1.1
2018-09-24T08:21:07.921Z,1.3
2018-09-24T08:22:08.007Z,1.3
2018-09-24T08:23:07.878Z,1.2
2018-09-24T08:24:07.927Z,1.3
2018-09-24T08:25:08.011Z,1.3
2018-09-24T08:26:08.140Z,1.2
2018-09-24T08:27:08.330Z,1.2
2018-09-24T08:28:08.242Z,1.3
2018-09-24T08:29:08.310Z,1.1
2018-09-24T08:30:08.444Z,1.3
2018-09-24T08:31:08.657Z,1.3
2018-09-24T08:32:26.494Z,1.1
2018-09-24T08:33:08.784Z,1.4
2018-09-24T08:34:26.642Z,1.3
2018-09-24T08:35:26.656Z,1.3
2018-09-24T08:36:08.791Z,1.2
2018-09-24T08:37:08.984Z,1.3
2018-09-24T08:38:09.096Z,1.2
2018-09-24T08:39:09.141Z,1.1
2018-09-24T08:40:09.267Z,1.2
2018-09-24T08:41:09.331Z,1.1
2018-09-24T08:42:09.390Z,1.2
2018-09-24T08:43:09.372Z,1.1
2018-09-24T08:44:09.490Z,1.2
2018-09-24T08:45:09.495Z,1.1
2018-09-24T08:46:09.448Z,1.2
2018-09-24T08:47:09.510Z,1
2018-09-24T08:48:09.662Z,1.4
2018-09-24T08:49:09.768Z,1.2
2018-09-24T08:51:09.740Z,1.1
2018-09-24T08:52:09.825Z,1
2018-09-24T08:53:10.240Z,1.2
2018-09-24T08:55:10.053Z,1.1
2018-09-24T08:56:10.396Z,1.2
2018-09-24T08:57:10.398Z,1.1
2018-09-24T08:58:10.489Z,0.9
2018-09-24T08:59:10.456Z,1.1
2018-09-24T09:00:10.663Z,1.1
2018-09-24T09:01:10.782Z,1.2
2018-09-24T09:02:10.776Z,1.1
2018-09-24T09:03:10.896Z,1
2018-09-24T09:04:11.117Z,1.1
2018-09-24T09:05:11.130Z,1.1
2018-09-24T09:06:29.137Z,1.2
2018-09-24T09:07:11.133Z,1.2
2018-09-24T09:08:11.402Z,1.1
2018-09-24T09:09:11.322Z,1
2018-09-24T09:10:11.428Z,1.1
2018-09-24T09:11:11.574Z,1.1
2018-09-24T09:12:11.654Z,1.1
2018-09-24T09:13:11.820Z,1.2
2018-09-24T09:14:12.065Z,1.2
2018-09-24T09:15:11.991Z,1.4
2018-09-24T09:16:12.081Z,1.1
2018-09-24T09:17:12.182Z,1.2
2018-09-24T09:18:12.400Z,1
2018-09-24T09:19:12.275Z,0.9
2018-09-24T09:20:12.443Z,0.9
2018-09-24T09:21:12.499Z,0.9
2018-09-24T09:22:12.451Z,1.1
2018-09-24T09:23:12.561Z,1
2018-09-24T09:24:12.715Z,1.1
2018-09-24T09:25:30.707Z,1
2018-09-24T09:26:12.869Z,1
2018-09-24T09:27:12.957Z,1.1
2018-09-24T09:28:13.060Z,1
2018-09-24T09:29:13.225Z,0.9
2018-09-24T09:30:13.126Z,0.9
2018-09-24T09:31:13.351Z,1.2
2018-09-24T09:32:13.375Z,1.1
2018-09-24T09:33:13.320Z,0.9
2018-09-24T09:34:13.380Z,0.9
2018-09-24T09:35:13.538Z,1.1
2018-09-24T09:36:13.452Z,1.3
2018-09-24T09:37:13.515Z,1.3
2018-09-24T09:38:31.558Z,1.1
2018-09-24T09:39:13.695Z,1.1
2018-09-24T09:40:13.745Z,1.1
2018-09-24T09:41:13.866Z,1.2
2018-09-24T09:42:14.006Z,1
2018-09-24T09:43:14.121Z,1.1
2018-09-24T09:44:14.030Z,1.1
2018-09-24T09:45:14.131Z,1
2018-09-24T09:46:14.266Z,1.1
2018-09-24T09:47:14.436Z,1.1
2018-09-24T09:48:14.676Z,1.2
2018-09-24T09:49:32.524Z,1.3
2018-09-24T09:50:14.777Z,1
2018-09-24T09:51:14.786Z,1.2
2018-09-24T09:52:14.769Z,1.3
2018-09-24T09:53:14.839Z,1
2018-09-24T09:54:15.017Z,0.9
2018-09-24T09:55:15.136Z,1.1
2018-09-24T09:56:15.223Z,1.4
2018-09-24T09:57:15.184Z,1.3
2018-09-24T09:58:15.337Z,1.4
2018-09-24T09:59:15.474Z,1.3
2018-09-24T10:00:15.560Z,1.4
2018-09-24T10:01:15.701Z,1.6
2018-09-24T10:02:15.675Z,1.3
2018-09-24T10:03:15.800Z,1.1
2018-09-24T10:04:15.970Z,1.3
2018-09-24T10:05:15.915Z,1.7
2018-09-24T10:07:16.226Z,1.1
2018-09-24T10:08:16.239Z,1.2
2018-09-24T10:09:34.113Z,1.2
2018-09-24T10:10:16.193Z,1.4
2018-09-24T10:11:16.442Z,1.4
2018-09-24T10:12:16.506Z,1.3
2018-09-24T10:13:16.447Z,1.2
2018-09-24T10:14:16.557Z,1.1
2018-09-24T10:15:16.727Z,1.3
2018-09-24T10:16:16.660Z,1.3
2018-09-24T10:18:16.980Z,1.2
2018-09-24T10:19:16.950Z,1.3
2018-09-24T10:20:17.049Z,1.3
2018-09-24T10:21:17.190Z,1.1
2018-09-24T10:22:17.364Z,1.3
2018-09-24T10:23:17.336Z,1.3
2018-09-24T10:24:17.473Z,1.3
2018-09-24T10:25:17.580Z,1.1
2018-09-24T10:26:17.732Z,1.3
2018-09-24T10:27:17.812Z,1.3
2018-09-24T10:28:17.783Z,1.2
2018-09-24T10:29:17.886Z,1.3
2018-09-24T10:30:18.100Z,1.4
2018-09-24T10:31:18.068Z,1.2
2018-09-24T10:33:36.096Z,1.1
2018-09-24T10:34:18.153Z,1.3
2018-09-24T10:35:18.227Z,1.1
2018-09-24T10:36:18.344Z,1.3
2018-09-24T10:37:18.598Z,1
2018-09-24T10:38:18.534Z,1.4
2018-09-24T10:39:18.534Z,1.1
2018-09-24T10:40:18.614Z,1.3
2018-09-24T10:41:18.839Z,1.2
2018-09-24T10:42:18.860Z,1.3
2018-09-24T10:43:36.829Z,1.4
2018-09-24T10:44:36.696Z,1.6
2018-09-24T10:45:18.943Z,1.3
2018-09-24T10:46:18.888Z,1.2
2018-09-24T10:47:18.968Z,1.3
2018-09-24T10:48:19.044Z,1.2
2018-09-24T10:49:19.253Z,1.1
2018-09-24T10:50:19.320Z,1.1
2018-09-24T10:51:37.246Z,1.3
2018-09-24T10:52:19.437Z,1.1
2018-09-24T10:53:19.544Z,1.1
2018-09-24T10:54:19.805Z,1.4
2018-09-24T10:55:19.771Z,1.4
2018-09-24T10:56:19.899Z,1
2018-09-24T10:57:20.179Z,1.3
2018-09-24T10:59:20.291Z,1.2
2018-09-24T11:00:20.249Z,1.2
2018-09-24T11:01:20.441Z,1
2018-09-24T11:02:20.485Z,1.3
2018-09-24T11:03:20.430Z,1.2
2018-09-24T11:04:20.604Z,1.1
2018-09-24T11:05:20.602Z,1.4
2018-09-24T11:06:20.771Z,1.4
2018-09-24T11:07:20.686Z,1.1
2018-09-24T11:08:20.787Z,1
2018-09-24T11:09:20.920Z,1.2
2018-09-24T11:10:20.912Z,1.2
2018-09-24T11:11:20.877Z,0.9
2018-09-24T11:12:21.116Z,1.3
2018-09-24T11:13:21.169Z,1.1
2018-09-24T11:14:21.152Z,1.3
2018-09-24T11:15:21.275Z,1.3
2018-09-24T11:16:21.502Z,1.3
2018-09-24T11:17:21.733Z,1.4
2018-09-24T11:18:21.714Z,1.4
2018-09-24T11:19:21.842Z,1.2
2018-09-24T11:20:22.137Z,1
2018-09-24T11:21:22.130Z,1.3
2018-09-24T11:22:22.155Z,1
2018-09-24T11:23:22.212Z,1.4
2018-09-24T11:24:41.272Z,1.2
2018-09-24T11:25:22.468Z,1
2018-09-24T11:27:23.547Z,1
2018-09-24T11:28:22.683Z,1
2018-09-24T11:29:22.672Z,1.1
2018-09-24T11:30:22.787Z,1.3
2018-09-24T11:31:22.865Z,1.1
2018-09-24T11:32:22.927Z,1.1
2018-09-24T11:33:22.889Z,1
2018-09-24T11:34:22.975Z,1
2018-09-24T11:35:23.105Z,1
2018-09-24T11:36:23.367Z,1.2
2018-09-24T11:37:23.330Z,1.1
2018-09-24T11:38:23.426Z,1.1
2018-09-24T11:39:23.585Z,1
2018-09-24T11:40:41.628Z,1.2
2018-09-24T11:41:23.717Z,1
2018-09-24T11:42:23.831Z,0.9
2018-09-24T11:43:23.945Z,1.1
2018-09-24T11:44:24.265Z,1.2
2018-09-24T11:45:42.347Z,1
2018-09-24T11:46:24.309Z,1.1
2018-09-24T11:47:24.271Z,1
2018-09-24T11:48:24.493Z,1.2
2018-09-24T11:49:42.426Z,0.9
2018-09-24T11:50:24.452Z,1.1
2018-09-24T11:51:24.622Z,1.2
2018-09-24T11:52:24.848Z,1
2018-09-24T11:53:24.885Z,1.2
2018-09-24T11:54:24.804Z,1
2018-09-24T11:55:24.886Z,1.1
2018-09-24T11:56:43.095Z,1.5
2018-09-24T11:57:25.037Z,1.2
2018-09-24T11:58:25.157Z,1.2
2018-09-24T11:59:25.332Z,1.1
2018-09-24T12:00:25.390Z,1.2
2018-09-24T12:01:25.528Z,1.1
2018-09-24T12:02:25.459Z,1.1
2018-09-24T12:03:25.571Z,1.1
2018-09-24T12:04:25.536Z,1.1
2018-09-24T12:05:43.549Z,1.2
2018-09-24T12:06:25.707Z,1.2
2018-09-24T12:07:25.718Z,1.1
2018-09-24T12:08:25.672Z,1.2
2018-09-24T12:09:25.821Z,1.2
2018-09-24T12:10:25.837Z,1.4
2018-09-24T12:11:25.857Z,1.1
2018-09-24T12:12:25.809Z,1.3
2018-09-24T12:13:25.914Z,1.1
2018-09-24T12:14:26.007Z,1.3
2018-09-24T12:15:26.139Z,1
2018-09-24T12:16:26.440Z,1.3
2018-09-24T12:17:26.208Z,1
2018-09-24T12:18:26.282Z,1.4
2018-09-24T12:19:26.458Z,1.1
2018-09-24T12:20:26.400Z,1.1
2018-09-24T12:21:26.600Z,1.2
2018-09-24T12:22:44.569Z,1.3
2018-09-24T12:23:26.573Z,1.2
2018-09-24T12:24:26.681Z,1.2
2018-09-24T12:25:26.930Z,1
2018-09-24T12:26:27.023Z,1.2
2018-09-24T12:27:27.057Z,1.2
2018-09-24T12:28:27.039Z,1.1
2018-09-24T12:29:27.070Z,1
2018-09-24T12:30:27.024Z,1
2018-09-24T12:31:27.173Z,1
2018-09-24T12:32:27.177Z,1.1
2018-09-24T12:33:27.419Z,1.3
2018-09-24T12:34:27.474Z,1.1
2018-09-24T12:35:27.432Z,1
2018-09-24T12:37:27.738Z,1.4
2018-09-24T12:38:27.773Z,1.3
2018-09-24T12:39:27.738Z,1.2
2018-09-24T12:40:27.893Z,1.1
2018-09-24T12:41:28.030Z,1
2018-09-24T12:42:28.052Z,1.4
2018-09-24T12:43:28.064Z,1.1
2018-09-24T12:44:28.051Z,1
2018-09-24T12:45:28.287Z,1
2018-09-24T12:46:28.321Z,1.2
2018-09-24T12:47:28.331Z,1.1
2018-09-24T12:48:46.296Z,1.1
2018-09-24T12:49:28.422Z,1.2
2018-09-24T12:50:28.407Z,1.1
2018-09-24T12:51:28.547Z,0.9
2018-09-24T12:52:28.736Z,1.1
2018-09-24T12:54:46.754Z,1.2
2018-09-24T12:55:28.907Z,1
2018-09-24T12:56:46.914Z,1.1
2018-09-24T12:57:29.154Z,1.2
2018-09-24T12:58:29.259Z,1.2
2018-09-24T12:59:29.249Z,1.3
2018-09-24T13:00:29.431Z,1.1
2018-09-24T13:01:29.468Z,1.2
2018-09-24T13:02:29.451Z,1
2018-09-24T13:03:29.639Z,1.1
2018-09-24T13:04:29.661Z,1.2
2018-09-24T13:05:29.761Z,1.4
2018-09-24T13:06:29.746Z,1.2
2018-09-24T13:07:29.905Z,1.3
2018-09-24T13:08:29.982Z,1.2
2018-09-24T13:09:30.085Z,1.3
2018-09-24T13:10:47.959Z,1.2
2018-09-24T13:11:30.136Z,1.1
2018-09-24T13:12:30.256Z,1.3
2018-09-24T13:13:30.441Z,1.1
2018-09-24T13:14:30.258Z,1.3
2018-09-24T13:15:30.505Z,1
2018-09-24T13:16:30.648Z,1
2018-09-24T13:17:30.662Z,1.2
2018-09-24T13:18:48.603Z,1.3
2018-09-24T13:19:30.757Z,1
2018-09-24T13:21:30.762Z,1.4
2018-09-24T13:22:31.054Z,1.6
2018-09-24T13:23:31.180Z,1.1
2018-09-24T13:24:30.938Z,1.2
2018-09-24T13:25:49.034Z,1.4
2018-09-24T13:26:31.340Z,1.2
2018-09-24T13:27:49.181Z,1.2
2018-09-24T13:28:31.352Z,1.5
2018-09-24T13:30:31.428Z,1.4
2018-09-24T13:31:31.620Z,1.5
2018-09-24T13:32:31.515Z,1.1
2018-09-24T13:33:31.535Z,1.2
2018-09-24T13:34:49.562Z,1.1
2018-09-24T13:35:31.709Z,1.1
2018-09-24T13:36:31.707Z,0.9
2018-09-24T13:37:31.698Z,1.1
2018-09-24T13:38:31.791Z,1
2018-09-24T13:39:49.709Z,1.2
2018-09-24T13:40:31.871Z,1.1
2018-09-24T13:41:32.047Z,1.2
2018-09-24T13:42:32.129Z,1.2
2018-09-24T13:43:32.177Z,1.2
2018-09-24T13:44:32.201Z,1
2018-09-24T13:45:32.280Z,1.1
2018-09-24T13:46:32.338Z,1.2
2018-09-24T13:48:33.461Z,1.1
2018-09-24T13:49:32.532Z,1.1
2018-09-24T13:50:32.594Z,1.2
2018-09-24T13:51:32.583Z,1.4
2018-09-24T13:52:32.585Z,1.1
2018-09-24T13:53:32.766Z,1.2
2018-09-24T13:54:50.632Z,1.1
2018-09-24T13:55:32.774Z,1.2
2018-09-24T13:56:32.910Z,1
2018-09-24T13:57:33.149Z,1.2
2018-09-24T13:58:33.036Z,1.2
2018-09-24T13:59:33.252Z,1.3
2018-09-24T14:00:51.113Z,1
2018-09-24T14:01:33.114Z,1.1
2018-09-24T14:02:33.705Z,1
2018-09-24T14:03:33.151Z,1.1
2018-09-24T14:04:33.480Z,1.3
2018-09-24T14:05:33.484Z,1.1
2018-09-24T14:06:33.309Z,1.1
2018-09-24T14:07:33.428Z,1.3
2018-09-24T14:08:33.496Z,1.2
2018-09-24T14:09:33.536Z,1.2
2018-09-24T14:10:33.539Z,1.1
2018-09-24T14:11:34.476Z,1.3
2018-09-24T14:12:33.778Z,1.4
2018-09-24T14:13:33.693Z,1.2
2018-09-24T14:14:33.802Z,1
2018-09-24T14:15:33.948Z,1.2
2018-09-24T14:16:33.805Z,1.1
2018-09-24T14:17:33.970Z,1.1
2018-09-24T14:18:34.053Z,1.2
2018-09-24T14:19:34.237Z,1.2
2018-09-24T14:20:34.080Z,1.3
2018-09-24T14:21:34.104Z,1.1
2018-09-24T14:22:34.399Z,1.1
2018-09-24T14:23:34.368Z,1
2018-09-24T14:24:34.455Z,1.2
2018-09-24T14:25:34.499Z,1.1
2018-09-24T14:26:34.580Z,1.2
2018-09-24T14:27:52.563Z,1.3
2018-09-24T14:28:34.778Z,1.1
2018-09-24T14:29:34.908Z,1.3
2018-09-24T14:30:52.847Z,1.2
2018-09-24T14:31:35.315Z,1.2
2018-09-24T14:32:35.058Z,1.2
2018-09-24T14:33:35.005Z,1.6
2018-09-24T14:34:35.399Z,1.4
2018-09-24T14:35:35.343Z,1
2018-09-24T14:36:35.312Z,1.2
2018-09-24T14:37:53.413Z,1.4
2018-09-24T14:38:35.701Z,1.5
2018-09-24T14:39:35.878Z,1.4
2018-09-24T14:40:35.799Z,1.7
2018-09-24T14:41:37.023Z,1.4
2018-09-24T14:42:36.030Z,1.4
2018-09-24T14:43:35.965Z,1.4
2018-09-24T14:44:36.014Z,1.3
2018-09-24T14:45:36.030Z,1.3
2018-09-24T14:46:54.028Z,1.3
2018-09-24T14:47:36.143Z,1.3
2018-09-24T14:48:36.155Z,1.2
2018-09-24T14:49:36.216Z,1
2018-09-24T14:50:36.342Z,1.2
2018-09-24T14:51:36.523Z,1.1
2018-09-24T14:52:36.363Z,1.2
2018-09-24T14:53:36.517Z,1.1
2018-09-24T14:54:36.711Z,1.1
2018-09-24T14:55:54.438Z,1.1
2018-09-24T14:56:36.637Z,1.2
2018-09-24T14:57:36.755Z,1.2
2018-09-24T14:58:36.928Z,1.2
2018-09-24T14:59:37.025Z,1.2
2018-09-24T15:00:37.201Z,1.1
2018-09-24T15:01:37.323Z,1.1
2018-09-24T15:02:37.496Z,1.1
2018-09-24T15:04:37.422Z,1